Time;durP1;ratioP1;P1;durP2;ratioP2;P2;SDS_P1;SDS_P2;PMS_P1;PMS_P2;Temp;Humidity;BMP_temperature;BMP_pressure;BME280_temperature;BME280_humidity;BME280_pressure;Samples;Min_cycle;Max_cycle;Signal;HPM_P1;HPM_P2
2024/01/23 00:00:43;;;;;;;;;;;;;;;;;;6003850;23;89081;-66
2024/01/23 00:03:08;;;;;;;;;;;;;;;;;;6006705;23;90444;-66
2024/01/23 00:05:34;;;;;;;;;;;;;;;;;;6003867;23;89198;-66
2024/01/23 00:07:59;;;;;;;;;;;;;;;;;;6003903;23;89612;-66
2024/01/23 00:10:24;;;;;;;;;;;;;;;;;;6003141;23;89492;-67
2024/01/23 00:12:49;;;;;;;;;;;;;;;;;;6003473;23;89263;-67
2024/01/23 00:15:15;;;;;;;;;;;;;;;;;;6003245;23;89367;-66
2024/01/23 00:17:40;;;;;;;;;;;;;;;;;;6003834;23;89463;-66
2024/01/23 00:20:06;;;;;;;;;;;;;;;;;;6003714;23;89358;-67
2024/01/23 00:22:31;;;;;;;;;;;;;;;;;;6003214;23;91745;-67
2024/01/23 00:24:56;;;;;;;;;;;;;;;;;;6007472;23;89343;-66
2024/01/23 00:27:21;;;;;;;;;;;;;;;;;;6002833;23;91191;-67
2024/01/23 00:29:47;;;;;;;;;;;;;;;;;;6003153;23;89393;-66
2024/01/23 00:32:12;;;;;;;;;;;;;;;;;;6004345;23;89599;-67
2024/01/23 00:34:38;;;;;;;;;;;;;;;;;;6004092;23;90395;-66
2024/01/23 00:37:03;;;;;;;;;;;;;;;;;;6003151;23;90259;-66
2024/01/23 00:39:29;;;;;;;;;;;;;;;;;;6002326;23;89551;-66
2024/01/23 00:41:54;;;;;;;;;;;;;;;;;;6003783;23;89719;-66
2024/01/23 00:44:19;;;;;;;;;;;;;;;;;;6007556;23;89471;-66
2024/01/23 00:46:44;;;;;;;;;;;;;;;;;;6003998;23;89712;-67
2024/01/23 00:49:10;;;;;;;;;;;;;;;;;;6003378;23;89500;-67
2024/01/23 00:51:35;;;;;;;;;;;;;;;;;;6002538;23;89005;-67
2024/01/23 00:54:02;;;;;;;;;;;;;;;;;;6001358;23;92307;-67
2024/01/23 00:56:27;;;;;;;;;;;;;;;;;;6002997;23;89863;-67
2024/01/23 00:58:52;;;;;;;;;;;;;;;;;;6003218;23;88947;-67
2024/01/23 01:01:18;;;;;;;;;;;;;;;;;;6001048;23;92445;-67
2024/01/23 01:03:43;;;;;;;;;;;;;;;;;;6003443;23;89222;-67
2024/01/23 01:06:08;;;;;;;;;;;;;;;;;;6007222;23;89515;-66
2024/01/23 01:08:33;;;;;;;;;;;;;;;;;;6003525;23;89284;-66
2024/01/23 01:10:59;;;;;;;;;;;;;;;;;;6003785;23;89430;-68
2024/01/23 01:13:25;;;;;;;;;;;;;;;;;;6004267;23;89638;-67
2024/01/23 01:15:50;;;;;;;;;;;;;;;;;;6004593;23;89843;-67
2024/01/23 01:18:15;;;;;;;;;;;;;;;;;;6004823;23;89224;-66
2024/01/23 01:20:41;;;;;;;;;;;;;;;;;;6003388;23;90145;-68
2024/01/23 01:23:06;;;;;;;;;;;;;;;;;;6005020;23;89701;-67
2024/01/23 01:25:31;;;;;;;;;;;;;;;;;;6004732;23;89412;-66
2024/01/23 01:27:59;;;;;;;;;;;;;;;;;;6007429;23;89976;-67
2024/01/23 01:30:28;;;;;;;;;;;;;;;;;;6004139;23;89556;-67
2024/01/23 01:32:53;;;;;;;;;;;;;;;;;;6004566;23;89595;-67
2024/01/23 01:35:18;;;;;;;;;;;;;;;;;;6004912;23;89269;-67
2024/01/23 01:37:43;;;;;;;;;;;;;;;;;;6004558;23;89454;-66
2024/01/23 01:40:09;;;;;;;;;;;;;;;;;;6004608;23;89573;-66
2024/01/23 01:42:34;;;;;;;;;;;;;;;;;;6002732;23;91673;-66
2024/01/23 01:44:59;;;;;;;;;;;;;;;;;;6002708;23;89314;-67
2024/01/23 01:47:25;;;;;;;;;;;;;;;;;;6005320;23;89782;-67
2024/01/23 01:49:50;;;;;;;;;;;;;;;;;;6007450;23;89133;-67
2024/01/23 01:52:15;;;;;;;;;;;;;;;;;;6004116;23;89627;-66
2024/01/23 01:54:41;;;;;;;;;;;;;;;;;;6002797;23;91311;-66
2024/01/23 01:57:07;;;;;;;;;;;;;;;;;;6004215;23;89360;-66
2024/01/23 01:59:32;;;;;;;;;;;;;;;;;;6003067;23;92215;-66
2024/01/23 02:01:57;;;;;;;;;;;;;;;;;;6004319;23;89518;-67
2024/01/23 02:04:22;;;;;;;;;;;;;;;;;;6003843;23;89602;-67
2024/01/23 02:06:47;;;;;;;;;;;;;;;;;;6004816;23;90027;-67
2024/01/23 02:09:13;;;;;;;;;;;;;;;;;;6004794;23;89745;-65
2024/01/23 02:11:53;;;;;;;;;;;;;;;;;;6008409;23;89552;-66
2024/01/23 02:14:18;;;;;;;;;;;;;;;;;;6004997;23;89559;-67
2024/01/23 02:16:44;;;;;;;;;;;;;;;;;;6004453;23;89305;-66
2024/01/23 02:19:13;;;;;;;;;;;;;;;;;;6005285;23;89282;-67
2024/01/23 02:21:38;;;;;;;;;;;;;;;;;;6004855;23;89268;-66
2024/01/23 02:24:03;;;;;;;;;;;;;;;;;;6004569;23;89267;-67
2024/01/23 02:26:29;;;;;;;;;;;;;;;;;;6004578;23;89664;-67
2024/01/23 02:28:54;;;;;;;;;;;;;;;;;;6004240;23;89032;-67
2024/01/23 02:31:19;;;;;;;;;;;;;;;;;;6004515;23;89153;-66
2024/01/23 02:33:44;;;;;;;;;;;;;;;;;;6005919;23;91554;-66
2024/01/23 02:36:10;;;;;;;;;;;;;;;;;;6004393;23;89369;-67
2024/01/23 02:38:36;;;;;;;;;;;;;;;;;;6004319;23;89427;-68
2024/01/23 02:41:03;;;;;;;;;;;;;;;;;;6004243;23;89734;-66
2024/01/23 02:43:28;;;;;;;;;;;;;;;;;;6004906;23;89382;-66
2024/01/23 02:45:53;;;;;;;;;;;;;;;;;;6002882;23;92202;-66
2024/01/23 02:48:18;;;;;;;;;;;;;;;;;;6002597;23;90491;-66
2024/01/23 02:50:43;;;;;;;;;;;;;;;;;;6004579;23;89571;-66
2024/01/23 02:53:09;;;;;;;;;;;;;;;;;;6008144;23;89755;-66
2024/01/23 02:55:34;;;;;;;;;;;;;;;;;;6004602;23;89678;-67
2024/01/23 02:57:59;;;;;;;;;;;;;;;;;;6004509;23;89679;-67
2024/01/23 03:00:25;;;;;;;;;;;;;;;;;;6004494;23;89151;-66
2024/01/23 03:02:50;;;;;;;;;;;;;;;;;;6002525;23;89078;-67
2024/01/23 03:05:15;;;;;;;;;;;;;;;;;;6004228;23;89444;-67
2024/01/23 03:07:41;;;;;;;;;;;;;;;;;;6004556;23;90119;-66
2024/01/23 03:10:07;;;;;;;;;;;;;;;;;;6004439;23;89446;-67
2024/01/23 03:12:32;;;;;;;;;;;;;;;;;;6004034;23;89489;-66
2024/01/23 03:14:57;;;;;;;;;;;;;;;;;;6007756;23;89910;-67
2024/01/23 03:17:23;;;;;;;;;;;;;;;;;;6004089;23;90592;-67
2024/01/23 03:19:48;;;;;;;;;;;;;;;;;;6004102;23;89249;-67
2024/01/23 03:22:13;;;;;;;;;;;;;;;;;;6003988;23;89452;-67
2024/01/23 03:24:39;;;;;;;;;;;;;;;;;;6004494;23;89513;-67
2024/01/23 03:27:06;;;;;;;;;;;;;;;;;;6004029;23;90199;-66
2024/01/23 03:29:37;;;;;;;;;;;;;;;;;;6003522;23;89016;-68
2024/01/23 03:32:03;;;;;;;;;;;;;;;;;;6004636;23;89996;-67
2024/01/23 03:34:31;;;;;;;;;;;;;;;;;;6004307;23;89202;-66
2024/01/23 03:36:57;;;;;;;;;;;;;;;;;;6006110;23;90409;-66
2024/01/23 03:39:22;;;;;;;;;;;;;;;;;;6004557;23;89836;-66
2024/01/23 03:41:47;;;;;;;;;;;;;;;;;;6003394;23;89889;-68
2024/01/23 03:44:13;;;;;;;;;;;;;;;;;;6004940;23;89790;-66
2024/01/23 03:46:38;;;;;;;;;;;;;;;;;;6005057;23;89811;-66
2024/01/23 03:49:03;;;;;;;;;;;;;;;;;;6004937;23;89411;-66
2024/01/23 03:51:29;;;;;;;;;;;;;;;;;;6004599;23;89710;-66
2024/01/23 03:53:54;;;;;;;;;;;;;;;;;;6002329;23;90108;-66
2024/01/23 03:56:21;;;;;;;;;;;;;;;;;;6004007;23;89111;-66
2024/01/23 03:58:46;;;;;;;;;;;;;;;;;;6007230;23;90347;-68
2024/01/23 04:01:11;;;;;;;;;;;;;;;;;;6003956;23;89586;-66
2024/01/23 04:03:36;;;;;;;;;;;;;;;;;;6003568;23;89589;-66
2024/01/23 04:06:02;;;;;;;;;;;;;;;;;;6002295;23;89516;-67
2024/01/23 04:08:27;;;;;;;;;;;;;;;;;;6002988;23;89577;-67
2024/01/23 04:10:52;;;;;;;;;;;;;;;;;;6004135;23;90543;-66
2024/01/23 04:13:17;;;;;;;;;;;;;;;;;;6004288;23;90525;-66
2024/01/23 04:15:43;;;;;;;;;;;;;;;;;;6001152;23;89940;-67
2024/01/23 04:18:08;;;;;;;;;;;;;;;;;;6003331;23;90733;-66
2024/01/23 04:20:33;;;;;;;;;;;;;;;;;;6007398;23;89136;-66
2024/01/23 04:22:58;;;;;;;;;;;;;;;;;;6004163;23;89179;-66
2024/01/23 04:25:24;;;;;;;;;;;;;;;;;;6004220;23;89412;-66
2024/01/23 04:27:49;;;;;;;;;;;;;;;;;;6004213;23;89075;-66
2024/01/23 04:30:14;;;;;;;;;;;;;;;;;;6003203;23;89724;-67
2024/01/23 04:32:41;;;;;;;;;;;;;;;;;;6002308;23;90418;-66
2024/01/23 04:35:07;;;;;;;;;;;;;;;;;;6003995;23;89738;-67
2024/01/23 04:37:32;;;;;;;;;;;;;;;;;;6004153;23;89791;-68
2024/01/23 04:39:57;;;;;;;;;;;;;;;;;;6003768;23;89356;-66
2024/01/23 04:42:22;;;;;;;;;;;;;;;;;;6005742;23;90814;-66
2024/01/23 04:44:47;;;;;;;;;;;;;;;;;;6003917;23;90666;-67
2024/01/23 04:47:13;;;;;;;;;;;;;;;;;;6003397;23;90330;-67
2024/01/23 04:49:38;;;;;;;;;;;;;;;;;;6003587;23;89660;-67
2024/01/23 04:52:04;;;;;;;;;;;;;;;;;;6003856;23;89371;-66
2024/01/23 04:54:29;;;;;;;;;;;;;;;;;;6001418;23;89535;-66
2024/01/23 04:56:54;;;;;;;;;;;;;;;;;;5999373;23;92200;-67
2024/01/23 04:59:20;;;;;;;;;;;;;;;;;;6001833;23;89234;-67
2024/01/23 05:01:45;;;;;;;;;;;;;;;;;;6005474;23;89117;-67
2024/01/23 05:04:10;;;;;;;;;;;;;;;;;;6002305;23;89575;-66
2024/01/23 05:06:36;;;;;;;;;;;;;;;;;;6000367;23;89421;-67
2024/01/23 05:09:02;;;;;;;;;;;;;;;;;;6002204;23;89607;-67
2024/01/23 05:11:27;;;;;;;;;;;;;;;;;;6001984;23;89560;-66
2024/01/23 05:13:52;;;;;;;;;;;;;;;;;;6002005;23;89374;-66
2024/01/23 05:16:18;;;;;;;;;;;;;;;;;;6001940;23;90050;-65
2024/01/23 05:18:43;;;;;;;;;;;;;;;;;;6001995;23;89305;-67
2024/01/23 05:21:09;;;;;;;;;;;;;;;;;;6002345;23;89070;-67
2024/01/23 05:23:34;;;;;;;;;;;;;;;;;;6006025;23;90053;-65
2024/01/23 05:26:00;;;;;;;;;;;;;;;;;;6001937;23;89934;-67
2024/01/23 05:28:25;;;;;;;;;;;;;;;;;;6002611;23;90276;-66
2024/01/23 05:30:50;;;;;;;;;;;;;;;;;;5999970;23;89544;-66
2024/01/23 05:33:15;;;;;;;;;;;;;;;;;;6000705;23;89747;-66
2024/01/23 05:35:41;;;;;;;;;;;;;;;;;;6000807;23;91325;-66
2024/01/23 05:38:06;;;;;;;;;;;;;;;;;;6000260;23;89705;-67
2024/01/23 05:40:32;;;;;;;;;;;;;;;;;;6002345;23;89965;-67
2024/01/23 05:42:57;;;;;;;;;;;;;;;;;;6000874;23;89337;-67
2024/01/23 05:45:22;;;;;;;;;;;;;;;;;;6005509;23;89435;-66
2024/01/23 05:47:47;;;;;;;;;;;;;;;;;;6002101;23;90187;-66
2024/01/23 05:50:13;;;;;;;;;;;;;;;;;;5999868;23;90513;-66
2024/01/23 05:52:38;;;;;;;;;;;;;;;;;;6002685;23;89821;-67
2024/01/23 05:55:03;;;;;;;;;;;;;;;;;;6001926;23;89609;-67
2024/01/23 05:57:29;;;;;;;;;;;;;;;;;;5999572;23;92105;-66
2024/01/23 05:59:54;;;;;;;;;;;;;;;;;;5999998;23;90176;-69
2024/01/23 06:02:19;;;;;;;;;;;;;;;;;;6003136;23;90736;-66
2024/01/23 06:04:45;;;;;;;;;;;;;;;;;;6002945;23;88982;-67
2024/01/23 06:07:11;;;;;;;;;;;;;;;;;;6006659;23;89329;-67
2024/01/23 06:09:36;;;;;;;;;;;;;;;;;;6001558;23;91148;-66
2024/01/23 06:12:01;;;;;;;;;;;;;;;;;;6002543;23;89321;-66
2024/01/23 06:14:26;;;;;;;;;;;;;;;;;;6002988;23;90341;-66
2024/01/23 06:16:52;;;;;;;;;;;;;;;;;;6003338;23;89333;-66
2024/01/23 06:19:18;;;;;;;;;;;;;;;;;;6003006;23;89577;-70
2024/01/23 06:21:43;;;;;;;;;;;;;;;;;;6003442;23;89670;-66
2024/01/23 06:24:09;;;;;;;;;;;;;;;;;;6004018;23;89421;-66
2024/01/23 06:26:35;;;;;;;;;;;;;;;;;;6000053;23;89973;-67
2024/01/23 06:29:01;;;;;;;;;;;;;;;;;;6006293;23;89638;-67
2024/01/23 06:31:27;;;;;;;;;;;;;;;;;;6002546;23;89515;-71
2024/01/23 06:33:53;;;;;;;;;;;;;;;;;;6003302;23;90034;-73
2024/01/23 06:36:18;;;;;;;;;;;;;;;;;;6002919;23;89505;-71
2024/01/23 06:38:43;;;;;;;;;;;;;;;;;;6004196;23;89581;-68
2024/01/23 06:41:09;;;;;;;;;;;;;;;;;;6002720;23;90968;-70
2024/01/23 06:43:34;;;;;;;;;;;;;;;;;;6003150;23;89493;-69
2024/01/23 06:45:59;;;;;;;;;;;;;;;;;;6002579;23;89876;-68
2024/01/23 06:48:25;;;;;;;;;;;;;;;;;;6002670;23;89810;-68
2024/01/23 06:50:50;;;;;;;;;;;;;;;;;;6005135;23;92349;-71
2024/01/23 06:53:16;;;;;;;;;;;;;;;;;;6002308;23;90610;-67
2024/01/23 06:55:41;;;;;;;;;;;;;;;;;;6002882;23;89718;-72
2024/01/23 06:58:06;;;;;;;;;;;;;;;;;;6000502;23;90282;-69
2024/01/23 07:00:33;;;;;;;;;;;;;;;;;;6004121;23;89742;-67
2024/01/23 07:02:58;;;;;;;;;;;;;;;;;;6002683;23;89892;-68
2024/01/23 07:05:23;;;;;;;;;;;;;;;;;;6003405;23;89508;-67
2024/01/23 07:07:49;;;;;;;;;;;;;;;;;;6001114;23;91442;-73
2024/01/23 07:10:14;;;;;;;;;;;;;;;;;;6006034;23;89284;-68
2024/01/23 07:12:39;;;;;;;;;;;;;;;;;;6003203;23;89689;-70
2024/01/23 07:15:04;;;;;;;;;;;;;;;;;;6003460;23;89647;-72
2024/01/23 07:17:30;;;;;;;;;;;;;;;;;;6003374;23;89647;-70
2024/01/23 07:19:55;;;;;;;;;;;;;;;;;;6002900;23;89422;-73
2024/01/23 07:22:21;;;;;;;;;;;;;;;;;;6002263;23;89288;-70
2024/01/23 07:24:46;;;;;;;;;;;;;;;;;;6003198;23;89609;-74
2024/01/23 07:27:11;;;;;;;;;;;;;;;;;;6001613;23;92608;-75
2024/01/23 07:29:38;;;;;;;;;;;;;;;;;;6000586;23;90461;-73
2024/01/23 07:32:03;;;;;;;;;;;;;;;;;;6006289;23;89683;-73
2024/01/23 07:34:29;;;;;;;;;;;;;;;;;;6001356;23;90686;-72
2024/01/23 07:36:54;;;;;;;;;;;;;;;;;;5990883;23;90263;-67
2024/01/23 07:39:19;;;;;;;;;;;;;;;;;;6031868;23;90862;-74
2024/01/23 07:41:44;;;;;;;;;;;;;;;;;;6032219;23;90001;-72
2024/01/23 07:44:10;;;;;;;;;;;;;;;;;;6031998;23;89084;-69
2024/01/23 07:46:37;;;;;;;;;;;;;;;;;;6032651;23;89934;-67
2024/01/23 07:49:02;;;;;;;;;;;;;;;;;;6030685;23;89920;-71
2024/01/23 07:51:28;;;;;;;;;;;;;;;;;;6031726;23;89436;-70
2024/01/23 07:53:54;;;;;;;;;;;;;;;;;;6056817;23;90754;-71
2024/01/23 07:56:19;;;;;;;;;;;;;;;;;;6031589;23;89470;-71
2024/01/23 07:58:44;;;;;;;;;;;;;;;;;;6031199;23;89666;-67
2024/01/23 08:01:09;;;;;;;;;;;;;;;;;;6032905;23;89934;-72
2024/01/23 08:03:35;;;;;;;;;;;;;;;;;;6032383;23;89576;-68
2024/01/23 08:06:00;;;;;;;;;;;;;;;;;;6056194;23;92271;-68
2024/01/23 08:08:25;;;;;;;;;;;;;;;;;;6032432;23;89676;-73
2024/01/23 08:10:51;;;;;;;;;;;;;;;;;;6036939;23;89437;-73
2024/01/23 08:13:16;;;;;;;;;;;;;;;;;;6032452;23;90169;-71
2024/01/23 08:15:41;;;;;;;;;;;;;;;;;;6036052;23;89559;-70
2024/01/23 08:18:08;;;;;;;;;;;;;;;;;;6031541;23;90893;-70
2024/01/23 08:20:33;;;;;;;;;;;;;;;;;;6030770;23;90294;-71
2024/01/23 08:23:01;;;;;;;;;;;;;;;;;;6030973;23;89075;-71
2024/01/23 08:25:27;;;;;;;;;;;;;;;;;;6032322;23;89691;-67
2024/01/23 08:27:52;;;;;;;;;;;;;;;;;;6031099;23;91148;-69
2024/01/23 08:30:18;;;;;;;;;;;;;;;;;;6029368;23;90015;-69
2024/01/23 08:32:43;;;;;;;;;;;;;;;;;;6031789;23;89862;-67
2024/01/23 08:35:09;;;;;;;;;;;;;;;;;;6030014;23;89412;-71
2024/01/23 08:37:34;;;;;;;;;;;;;;;;;;6034651;23;89049;-70
2024/01/23 08:40:00;;;;;;;;;;;;;;;;;;6032137;23;90096;-69
2024/01/23 08:42:25;;;;;;;;;;;;;;;;;;6032174;23;89056;-70
2024/01/23 08:44:50;;;;;;;;;;;;;;;;;;6055027;23;92122;-67
2024/01/23 08:47:16;;;;;;;;;;;;;;;;;;6032534;23;89387;-67
2024/01/23 08:49:41;;;;;;;;;;;;;;;;;;6031509;23;89589;-71
2024/01/23 08:52:06;;;;;;;;;;;;;;;;;;6032684;23;89355;-70
2024/01/23 08:54:36;;;;;;;;;;;;;;;;;;6055026;23;92398;-72
2024/01/23 08:57:04;;;;;;;;;;;;;;;;;;6031538;23;89561;-68
2024/01/23 08:59:29;;;;;;;;;;;;;;;;;;6035129;23;89153;-74
2024/01/23 09:01:55;;;;;;;;;;;;;;;;;;6054943;23;89038;-69
2024/01/23 09:04:20;;;;;;;;;;;;;;;;;;6031846;23;89766;-73
2024/01/23 09:06:45;;;;;;;;;;;;;;;;;;6031108;23;89407;-67
2024/01/23 09:09:11;;;;;;;;;;;;;;;;;;6032434;23;89291;-74
2024/01/23 09:11:36;;;;;;;;;;;;;;;;;;6031647;23;89535;-68
2024/01/23 09:14:01;;;;;;;;;;;;;;;;;;6031979;23;89391;-68
2024/01/23 09:16:26;;;;;;;;;;;;;;;;;;6031547;23;89293;-66
2024/01/23 09:18:51;;;;;;;;;;;;;;;;;;6035389;23;89778;-71
2024/01/23 09:21:17;;;;;;;;;;;;;;;;;;6054399;23;90152;-68
2024/01/23 09:23:42;;;;;;;;;;;;;;;;;;6032175;23;89344;-70
2024/01/23 09:26:09;;;;;;;;;;;;;;;;;;6032084;23;89775;-69
2024/01/23 09:28:34;;;;;;;;;;;;;;;;;;6031848;23;89496;-70
2024/01/23 09:31:00;;;;;;;;;;;;;;;;;;6031710;23;90309;-68
2024/01/23 09:33:25;;;;;;;;;;;;;;;;;;6031940;23;89958;-73
2024/01/23 09:35:50;;;;;;;;;;;;;;;;;;6033878;23;89133;-69
2024/01/23 09:38:16;;;;;;;;;;;;;;;;;;6033844;23;90712;-70
2024/01/23 09:40:41;;;;;;;;;;;;;;;;;;6038411;23;90120;-72
2024/01/23 09:43:10;;;;;;;;;;;;;;;;;;6036170;23;89648;-72
2024/01/23 09:45:37;;;;;;;;;;;;;;;;;;6035585;23;89553;-74
2024/01/23 09:48:02;;;;;;;;;;;;;;;;;;6034379;23;90215;-72
2024/01/23 09:50:28;;;;;;;;;;;;;;;;;;6037632;23;89632;-71
2024/01/23 09:52:55;;;;;;;;;;;;;;;;;;6059133;23;92102;-72
2024/01/23 09:55:20;;;;;;;;;;;;;;;;;;6034069;23;89535;-69
2024/01/23 09:57:47;;;;;;;;;;;;;;;;;;6033514;23;90414;-68
2024/01/23 10:00:13;;;;;;;;;;;;;;;;;;6033747;23;89387;-69
2024/01/23 10:02:39;;;;;;;;;;;;;;;;;;6037147;23;89461;-73
2024/01/23 10:05:07;;;;;;;;;;;;;;;;;;6033629;23;90256;-72
2024/01/23 10:07:32;;;;;;;;;;;;;;;;;;6032870;23;89393;-70
2024/01/23 10:10:05;;;;;;;;;;;;;;;;;;6032705;23;89652;-70
2024/01/23 10:12:32;;;;;;;;;;;;;;;;;;6053578;23;91459;-72
2024/01/23 10:14:57;;;;;;;;;;;;;;;;;;6032003;23;89174;-69
2024/01/23 10:17:22;;;;;;;;;;;;;;;;;;6032438;23;89717;-70
2024/01/23 10:19:47;;;;;;;;;;;;;;;;;;6031966;23;90521;-70
2024/01/23 10:22:15;;;;;;;;;;;;;;;;;;6032776;23;89328;-70
2024/01/23 10:24:40;;;;;;;;;;;;;;;;;;6035790;23;89031;-71
2024/01/23 10:27:07;;;;;;;;;;;;;;;;;;6032550;23;88993;-70
2024/01/23 10:29:34;;;;;;;;;;;;;;;;;;6031957;23;89927;-68
2024/01/23 10:31:59;;;;;;;;;;;;;;;;;;6033310;23;89226;-69
2024/01/23 10:34:25;;;;;;;;;;;;;;;;;;6032155;23;89322;-67
2024/01/23 10:36:55;;;;;;;;;;;;;;;;;;6032263;23;89589;-72
2024/01/23 10:39:21;;;;;;;;;;;;;;;;;;6031433;23;89468;-71
2024/01/23 10:41:46;;;;;;;;;;;;;;;;;;6033314;23;90502;-71
2024/01/23 10:44:13;;;;;;;;;;;;;;;;;;6033203;23;90104;-71
2024/01/23 10:46:38;;;;;;;;;;;;;;;;;;6036485;23;90873;-73
2024/01/23 10:49:04;;;;;;;;;;;;;;;;;;6033976;23;90371;-69
2024/01/23 10:51:33;;;;;;;;;;;;;;;;;;6033663;23;89140;-68
2024/01/23 10:54:03;;;;;;;;;;;;;;;;;;6033331;23;89474;-72
2024/01/23 10:56:30;;;;;;;;;;;;;;;;;;6033616;23;90817;-72
2024/01/23 10:59:01;;;;;;;;;;;;;;;;;;6032841;23;90101;-73
2024/01/23 11:01:28;;;;;;;;;;;;;;;;;;6033782;23;88962;-71
2024/01/23 11:03:53;;;;;;;;;;;;;;;;;;6033120;23;90684;-72
2024/01/23 11:06:22;;;;;;;;;;;;;;;;;;6036670;23;89325;-72
2024/01/23 11:08:53;;;;;;;;;;;;;;;;;;6033520;23;89862;-69
2024/01/23 11:11:31;;;;;;;;;;;;;;;;;;6033779;23;89581;-71
2024/01/23 11:14:04;;;;;;;;;;;;;;;;;;6033211;23;89534;-69
2024/01/23 11:16:29;;;;;;;;;;;;;;;;;;6033016;23;89692;-72
2024/01/23 11:18:55;;;;;;;;;;;;;;;;;;6033708;23;89318;-75
2024/01/23 11:21:23;;;;;;;;;;;;;;;;;;6034504;23;89696;-69
2024/01/23 11:23:59;;;;;;;;;;;;;;;;;;6033209;23;89567;-67
2024/01/23 11:26:26;;;;;;;;;;;;;;;;;;6052797;23;91936;-69
2024/01/23 11:29:13;;;;;;;;;;;;;;;;;;6057322;23;90589;-69
2024/01/23 11:31:39;;;;;;;;;;;;;;;;;;6031947;23;89819;-75
2024/01/23 11:34:22;;;;;;;;;;;;;;;;;;6054272;23;89681;-71
2024/01/23 11:36:48;;;;;;;;;;;;;;;;;;6031107;23;89769;-70
2024/01/23 11:39:14;;;;;;;;;;;;;;;;;;6031270;23;89504;-71
2024/01/23 11:41:46;;;;;;;;;;;;;;;;;;6032192;23;89041;-70
2024/01/23 11:44:11;;;;;;;;;;;;;;;;;;6030366;23;90012;-73
2024/01/23 11:46:37;;;;;;;;;;;;;;;;;;6030750;23;90502;-69
2024/01/23 11:49:03;;;;;;;;;;;;;;;;;;6030471;23;89572;-69
2024/01/23 11:51:29;;;;;;;;;;;;;;;;;;6035171;23;90382;-73
2024/01/23 11:53:58;;;;;;;;;;;;;;;;;;6032673;23;88921;-69
2024/01/23 11:56:23;;;;;;;;;;;;;;;;;;6027375;23;91823;-69
2024/01/23 11:58:49;;;;;;;;;;;;;;;;;;6031018;23;89547;-68
2024/01/23 12:01:15;;;;;;;;;;;;;;;;;;6031544;23;89204;-70
2024/01/23 12:03:48;;;;;;;;;;;;;;;;;;6029324;23;91724;-68
2024/01/23 12:06:13;;;;;;;;;;;;;;;;;;6053636;23;91706;-69
2024/01/23 12:08:39;;;;;;;;;;;;;;;;;;6052744;23;89517;-69
2024/01/23 12:11:04;;;;;;;;;;;;;;;;;;6030887;23;89943;-69
2024/01/23 12:13:29;;;;;;;;;;;;;;;;;;6032915;23;89838;-72
2024/01/23 12:15:55;;;;;;;;;;;;;;;;;;6030106;23;90792;-69
2024/01/23 12:18:24;;;;;;;;;;;;;;;;;;6030303;23;89195;-71
2024/01/23 12:20:50;;;;;;;;;;;;;;;;;;6031648;23;89164;-69
2024/01/23 12:23:16;;;;;;;;;;;;;;;;;;6031534;23;89666;-71
2024/01/23 12:25:41;;;;;;;;;;;;;;;;;;6029728;23;92001;-71
2024/01/23 12:28:07;;;;;;;;;;;;;;;;;;6031513;23;90408;-68
2024/01/23 12:30:32;;;;;;;;;;;;;;;;;;6031107;23;89688;-68
2024/01/23 12:32:59;;;;;;;;;;;;;;;;;;6031877;23;89403;-68
2024/01/23 12:35:24;;;;;;;;;;;;;;;;;;6034398;23;89314;-68
2024/01/23 12:37:50;;;;;;;;;;;;;;;;;;6030373;23;89244;-69
2024/01/23 12:40:16;;;;;;;;;;;;;;;;;;6031077;23;89008;-68
2024/01/23 12:42:46;;;;;;;;;;;;;;;;;;6053213;23;92354;-69
2024/01/23 12:45:13;;;;;;;;;;;;;;;;;;6031686;23;90073;-68
2024/01/23 12:47:38;;;;;;;;;;;;;;;;;;6031399;23;89719;-71
2024/01/23 12:50:14;;;;;;;;;;;;;;;;;;6028506;23;92603;-71
2024/01/23 12:52:39;;;;;;;;;;;;;;;;;;6051735;23;92122;-68
2024/01/23 12:55:05;;;;;;;;;;;;;;;;;;6051996;23;89438;-69
2024/01/23 12:57:30;;;;;;;;;;;;;;;;;;6032140;23;90345;-68
2024/01/23 12:59:55;;;;;;;;;;;;;;;;;;6031322;23;89539;-68
2024/01/23 13:02:20;;;;;;;;;;;;;;;;;;6029733;23;89713;-68
2024/01/23 13:04:45;;;;;;;;;;;;;;;;;;6030907;23;89251;-69
2024/01/23 13:07:11;;;;;;;;;;;;;;;;;;6030305;23;89094;-68
2024/01/23 13:09:36;;;;;;;;;;;;;;;;;;6053401;23;92112;-69
2024/01/23 13:12:02;;;;;;;;;;;;;;;;;;6032122;23;89706;-67
2024/01/23 13:14:29;;;;;;;;;;;;;;;;;;6031305;23;89923;-69
2024/01/23 13:16:54;;;;;;;;;;;;;;;;;;6035114;23;90247;-68
2024/01/23 13:19:19;;;;;;;;;;;;;;;;;;6031898;23;89444;-70
2024/01/23 13:21:45;;;;;;;;;;;;;;;;;;6031781;23;89550;-68
2024/01/23 13:24:10;;;;;;;;;;;;;;;;;;6031644;23;89683;-71
2024/01/23 13:26:35;;;;;;;;;;;;;;;;;;6030809;23;89578;-71
2024/01/23 13:29:01;;;;;;;;;;;;;;;;;;6053965;23;92195;-70
2024/01/23 13:31:27;;;;;;;;;;;;;;;;;;6030701;23;91133;-69
2024/01/23 13:33:53;;;;;;;;;;;;;;;;;;6053900;23;90029;-69
2024/01/23 13:36:18;;;;;;;;;;;;;;;;;;6030893;23;89496;-69
2024/01/23 13:38:44;;;;;;;;;;;;;;;;;;6036336;23;89678;-69
2024/01/23 13:41:09;;;;;;;;;;;;;;;;;;6031791;23;89651;-71
2024/01/23 13:43:34;;;;;;;;;;;;;;;;;;6030919;23;89412;-69
2024/01/23 13:46:00;;;;;;;;;;;;;;;;;;6031153;23;89390;-68
2024/01/23 13:48:25;;;;;;;;;;;;;;;;;;6029346;23;89617;-70
2024/01/23 13:50:51;;;;;;;;;;;;;;;;;;6028541;23;91671;-69
2024/01/23 13:53:16;;;;;;;;;;;;;;;;;;6030678;23;90373;-70
2024/01/23 13:55:42;;;;;;;;;;;;;;;;;;6029613;23;90360;-70
2024/01/23 13:58:07;;;;;;;;;;;;;;;;;;6031895;23;89579;-68
2024/01/23 14:00:33;;;;;;;;;;;;;;;;;;6036382;23;89350;-69
2024/01/23 14:02:58;;;;;;;;;;;;;;;;;;6031335;23;90097;-68
2024/01/23 14:05:23;;;;;;;;;;;;;;;;;;6032375;23;88946;-69
2024/01/23 14:07:49;;;;;;;;;;;;;;;;;;6032886;23;89503;-70
2024/01/23 14:10:17;;;;;;;;;;;;;;;;;;6032956;23;89334;-68
2024/01/23 14:12:45;;;;;;;;;;;;;;;;;;6032684;23;89452;-70
2024/01/23 14:15:11;;;;;;;;;;;;;;;;;;6030182;23;90862;-69
2024/01/23 14:17:37;;;;;;;;;;;;;;;;;;6032416;23;90819;-71
2024/01/23 14:20:04;;;;;;;;;;;;;;;;;;6031933;23;88909;-69
2024/01/23 14:22:29;;;;;;;;;;;;;;;;;;6036062;23;89566;-70
2024/01/23 14:24:54;;;;;;;;;;;;;;;;;;6032854;23;88932;-69
2024/01/23 14:27:20;;;;;;;;;;;;;;;;;;6032983;23;89936;-68
2024/01/23 14:29:45;;;;;;;;;;;;;;;;;;6032562;23;89127;-69
2024/01/23 14:32:10;;;;;;;;;;;;;;;;;;6033128;23;88960;-71
2024/01/23 14:34:35;;;;;;;;;;;;;;;;;;6032906;23;89679;-73
2024/01/23 14:37:00;;;;;;;;;;;;;;;;;;6032011;23;89329;-69
2024/01/23 14:39:26;;;;;;;;;;;;;;;;;;6031757;23;89170;-69
2024/01/23 14:41:53;;;;;;;;;;;;;;;;;;6054825;23;92232;-68
2024/01/23 14:44:19;;;;;;;;;;;;;;;;;;6035381;23;89253;-69
2024/01/23 14:46:44;;;;;;;;;;;;;;;;;;6032833;23;89649;-69
2024/01/23 14:49:09;;;;;;;;;;;;;;;;;;6032395;23;89421;-69
2024/01/23 14:51:35;;;;;;;;;;;;;;;;;;6032305;23;89131;-69
2024/01/23 14:54:01;;;;;;;;;;;;;;;;;;6031975;23;89827;-72
2024/01/23 14:56:26;;;;;;;;;;;;;;;;;;6032264;23;89640;-71
2024/01/23 14:58:54;;;;;;;;;;;;;;;;;;6032730;23;89902;-69
2024/01/23 15:01:20;;;;;;;;;;;;;;;;;;6032582;23;89998;-71
2024/01/23 15:03:45;;;;;;;;;;;;;;;;;;6030315;23;90188;-71
2024/01/23 15:06:10;;;;;;;;;;;;;;;;;;6035866;23;89559;-69
2024/01/23 15:08:36;;;;;;;;;;;;;;;;;;6031696;23;89192;-68
2024/01/23 15:11:01;;;;;;;;;;;;;;;;;;6032366;23;89525;-71
2024/01/23 15:13:27;;;;;;;;;;;;;;;;;;6032123;23;90795;-68
2024/01/23 15:15:52;;;;;;;;;;;;;;;;;;6032459;23;90185;-72
2024/01/23 15:18:17;;;;;;;;;;;;;;;;;;6031264;23;89285;-71
2024/01/23 15:20:42;;;;;;;;;;;;;;;;;;6032699;23;89632;-72
2024/01/23 15:23:07;;;;;;;;;;;;;;;;;;6053820;23;91335;-67
2024/01/23 15:25:33;;;;;;;;;;;;;;;;;;6034609;23;88947;-69
2024/01/23 15:27:58;;;;;;;;;;;;;;;;;;6030824;23;89446;-72
2024/01/23 15:30:25;;;;;;;;;;;;;;;;;;6031908;23;89001;-74
2024/01/23 15:32:51;;;;;;;;;;;;;;;;;;6030511;23;90810;-71
2024/01/23 15:35:16;;;;;;;;;;;;;;;;;;6032682;23;90245;-70
2024/01/23 15:37:41;;;;;;;;;;;;;;;;;;6033023;23;89660;-71
2024/01/23 15:40:07;;;;;;;;;;;;;;;;;;6034410;23;89796;-72
2024/01/23 15:42:32;;;;;;;;;;;;;;;;;;6031804;23;89736;-71
2024/01/23 15:44:57;;;;;;;;;;;;;;;;;;6032901;23;89749;-70
2024/01/23 15:47:26;;;;;;;;;;;;;;;;;;6034417;23;89866;-70
2024/01/23 15:49:52;;;;;;;;;;;;;;;;;;6029287;23;89011;-69
2024/01/23 15:52:17;;;;;;;;;;;;;;;;;;6029512;23;89469;-68
2024/01/23 15:54:42;;;;;;;;;;;;;;;;;;6031254;23;89312;-70
2024/01/23 15:57:08;;;;;;;;;;;;;;;;;;4961264;23;10000444;-69
2024/01/23 15:59:33;;;;;;;;;;;;;;;;;;6029930;23;89465;-67
2024/01/23 16:01:58;;;;;;;;;;;;;;;;;;6028998;23;89657;-67
2024/01/23 16:04:24;;;;;;;;;;;;;;;;;;6030878;23;89497;-71
2024/01/23 16:06:49;;;;;;;;;;;;;;;;;;6028828;23;89614;-70
2024/01/23 16:09:19;;;;;;;;;;;;;;;;;;6032671;23;89552;-69
2024/01/23 16:11:45;;;;;;;;;;;;;;;;;;6029602;23;89308;-70
2024/01/23 16:14:10;;;;;;;;;;;;;;;;;;6031407;23;89584;-70
2024/01/23 16:16:35;;;;;;;;;;;;;;;;;;6030726;23;89260;-69
2024/01/23 16:19:00;;;;;;;;;;;;;;;;;;6030954;23;89626;-69
2024/01/23 16:21:27;;;;;;;;;;;;;;;;;;6028995;23;89933;-71
2024/01/23 16:23:52;;;;;;;;;;;;;;;;;;6052171;23;91802;-71
2024/01/23 16:26:18;;;;;;;;;;;;;;;;;;6027683;23;90710;-69
2024/01/23 16:28:43;;;;;;;;;;;;;;;;;;6029865;23;89464;-71
2024/01/23 16:31:08;;;;;;;;;;;;;;;;;;6034015;23;89056;-70
2024/01/23 16:33:33;;;;;;;;;;;;;;;;;;6029433;23;89256;-72
2024/01/23 16:35:58;;;;;;;;;;;;;;;;;;6027270;23;90438;-70